Time;durP1;ratioP1;P1;durP2;ratioP2;P2;SDS_P1;SDS_P2;PMS_P1;PMS_P2;Temp;Humidity;BMP_temperature;BMP_pressure;BME280_temperature;BME280_humidity;BME280_pressure;Samples;Min_cycle;Max_cycle;Signal;HPM_P1;HPM_P2
2022/03/25 00:01:51;;;;;;;38.47;16.53;;;6.50;48.60;;;;;;5291312;27;20441;-48
2022/03/25 00:04:21;;;;;;;28.90;16.37;;;6.40;48.70;;;;;;5285488;28;20271;-47
2022/03/25 00:06:52;;;;;;;35.03;18.10;;;6.40;48.90;;;;;;5282087;28;20515;-48
2022/03/25 00:09:22;;;;;;;41.13;18.70;;;6.40;49.70;;;;;;5288887;27;21009;-48
2022/03/25 00:11:53;;;;;;;33.37;16.97;;;6.30;49.80;;;;;;5276764;28;20244;-48
2022/03/25 00:14:24;;;;;;;31.53;17.13;;;6.30;49.70;;;;;;5274924;28;20177;-47
2022/03/25 00:16:54;;;;;;;39.33;15.43;;;6.40;49.70;;;;;;5284556;27;20192;-49
2022/03/25 00:19:25;;;;;;;32.10;17.30;;;6.40;49.70;;;;;;5288924;27;20212;-48
2022/03/25 00:21:55;;;;;;;31.53;17.07;;;6.30;49.70;;;;;;5272660;28;20521;-47
2022/03/25 00:24:26;;;;;;;29.73;15.33;;;6.30;49.90;;;;;;5290186;27;20180;-48
2022/03/25 00:26:56;;;;;;;30.43;15.90;;;6.20;50.20;;;;;;5283701;27;20201;-47
2022/03/25 00:29:27;;;;;;;31.83;16.40;;;6.20;50.50;;;;;;5278837;28;20285;-47
2022/03/25 00:31:57;;;;;;;40.70;17.57;;;6.20;50.80;;;;;;5288118;28;20193;-47
2022/03/25 00:34:29;;;;;;;36.30;16.57;;;6.20;51.20;;;;;;5289330;28;20184;-47
2022/03/25 00:37:00;;;;;;;27.67;15.20;;;6.10;51.20;;;;;;5275019;28;20556;-48
2022/03/25 00:39:31;;;;;;;26.37;15.50;;;6.10;51.30;;;;;;5286514;27;20465;-49
2022/03/25 00:42:02;;;;;;;31.13;15.33;;;6.00;51.60;;;;;;5284222;28;20503;-47
2022/03/25 00:44:33;;;;;;;26.40;15.07;;;6.00;52.20;;;;;;5265487;28;20183;-49
2022/03/25 00:47:04;;;;;;;34.83;17.30;;;5.90;52.70;;;;;;5289187;27;20431;-49
2022/03/25 00:49:35;;;;;;;32.73;18.70;;;5.90;53.30;;;;;;5289397;28;20276;-47
2022/03/25 00:52:06;;;;;;;31.10;16.60;;;5.90;53.70;;;;;;5283570;28;20185;-46
2022/03/25 00:54:37;;;;;;;32.47;17.03;;;5.90;53.90;;;;;;5270521;28;20971;-48
2022/03/25 00:57:07;;;;;;;28.63;16.03;;;5.90;54.40;;;;;;5286108;27;20478;-47
2022/03/25 00:59:38;;;;;;;33.63;17.13;;;5.90;54.80;;;;;;5287888;27;20257;-47
2022/03/25 01:02:08;;;;;;;32.67;16.00;;;5.90;55.20;;;;;;5271145;28;20230;-48
2022/03/25 01:04:39;;;;;;;37.90;18.27;;;5.80;55.40;;;;;;5282149;28;20184;-48
2022/03/25 01:07:10;;;;;;;34.33;16.80;;;5.80;56.60;;;;;;5283883;28;20212;-46
2022/03/25 01:09:40;;;;;;;36.07;16.70;;;5.80;57.50;;;;;;5287768;27;20201;-48
2022/03/25 01:12:11;;;;;;;31.83;16.10;;;5.70;57.70;;;;;;5274961;28;20435;-47
2022/03/25 01:14:42;;;;;;;35.50;17.73;;;5.70;58.40;;;;;;5272393;28;20186;-47
2022/03/25 01:17:12;;;;;;;35.53;16.50;;;5.70;58.90;;;;;;5285105;28;20184;-49
2022/03/25 01:19:46;;;;;;;35.30;17.70;;;5.80;59.60;;;;;;5281915;28;20230;-48
2022/03/25 01:22:17;;;;;;;33.37;16.80;;;5.70;59.80;;;;;;5263561;28;20181;-48
2022/03/25 01:24:48;;;;;;;39.20;18.90;;;5.70;60.70;;;;;;5270857;28;20441;-47
2022/03/25 01:27:19;;;;;;;39.73;17.80;;;5.70;61.70;;;;;;5284624;28;20188;-46
2022/03/25 01:29:50;;;;;;;41.07;19.43;;;5.70;63.20;;;;;;5288758;27;20544;-46
2022/03/25 01:32:20;;;;;;;41.00;18.13;;;5.70;64.50;;;;;;5290866;28;20547;-47
2022/03/25 01:34:51;;;;;;;32.30;16.53;;;5.70;64.20;;;;;;5280525;28;20187;-48
2022/03/25 01:37:23;;;;;;;32.50;17.50;;;5.70;64.30;;;;;;5266690;28;20233;-48
2022/03/25 01:39:53;;;;;;;34.33;17.20;;;5.60;65.70;;;;;;5269798;28;20277;-47
2022/03/25 01:42:35;;;;;;;31.53;17.47;;;5.50;67.00;;;;;;5287150;27;20433;-48
2022/03/25 01:45:07;;;;;;;24.50;15.27;;;5.50;69.20;;;;;;5281689;28;20279;-48
2022/03/25 01:47:38;;;;;;;35.40;19.37;;;5.40;71.70;;;;;;5283314;28;20434;-47
2022/03/25 01:50:20;;;;;;;36.27;18.50;;;5.40;73.50;;;;;;5269781;28;20453;-47
2022/03/25 01:52:52;;;;;;;38.50;17.43;;;5.40;75.10;;;;;;5284986;28;20476;-48
2022/03/25 01:55:27;;;;;;;32.60;17.50;;;5.40;77.40;;;;;;5287974;28;20932;-48
2022/03/25 01:57:58;;;;;;;37.23;19.40;;;5.40;79.90;;;;;;5269866;28;20531;-54
2022/03/25 02:00:29;;;;;;;38.67;19.77;;;5.40;81.90;;;;;;5281256;27;20445;-47
2022/03/25 02:03:00;;;;;;;35.33;18.00;;;5.40;83.80;;;;;;5270991;28;20429;-48
2022/03/25 02:05:31;;;;;;;34.17;17.97;;;5.50;83.70;;;;;;5281488;28;20430;-48
2022/03/25 02:08:02;;;;;;;37.07;17.13;;;5.50;84.50;;;;;;5276158;28;20179;-47
2022/03/25 02:10:33;;;;;;;34.60;18.23;;;5.50;84.40;;;;;;5271312;28;20202;-47
2022/03/25 02:13:04;;;;;;;35.20;17.20;;;5.50;83.60;;;;;;5277121;28;20438;-47
2022/03/25 02:15:37;;;;;;;36.23;17.20;;;5.50;83.70;;;;;;5273565;28;20178;-48
2022/03/25 02:18:10;;;;;;;33.80;17.37;;;5.50;85.10;;;;;;5285393;28;20223;-49
2022/03/25 02:20:43;;;;;;;41.73;18.83;;;5.40;88.30;;;;;;5285245;28;20476;-48
2022/03/25 02:23:14;;;;;;;32.50;17.43;;;5.40;90.00;;;;;;5266445;28;20433;-48
2022/03/25 02:25:50;;;;;;;33.03;17.20;;;5.40;90.30;;;;;;5269928;28;20451;-48
2022/03/25 02:28:21;;;;;;;28.73;16.40;;;5.40;90.00;;;;;;5266914;28;20437;-46
2022/03/25 02:30:51;;;;;;;45.87;16.67;;;5.40;90.20;;;;;;5287642;28;20441;-46
2022/03/25 02:33:22;;;;;;;31.20;16.73;;;5.40;90.40;;;;;;5282908;28;20964;-47
2022/03/25 02:35:52;;;;;;;30.00;15.20;;;5.30;91.30;;;;;;5264100;28;20177;-47
2022/03/25 02:38:24;;;;;;;28.00;16.20;;;5.30;91.90;;;;;;5245212;28;20200;-47
2022/03/25 02:40:54;;;;;;;31.27;14.80;;;5.30;91.70;;;;;;5269921;28;20191;-49
2022/03/25 02:43:25;;;;;;;29.10;15.97;;;5.30;92.00;;;;;;5255828;28;20952;-47
2022/03/25 02:45:56;;;;;;;27.00;14.50;;;5.20;92.90;;;;;;5251006;28;20593;-47
2022/03/25 02:48:26;;;;;;;42.80;17.70;;;5.20;93.50;;;;;;5279204;28;20230;-48
2022/03/25 02:50:57;;;;;;;38.40;17.43;;;5.20;94.40;;;;;;5287504;28;20210;-49
2022/03/25 02:53:28;;;;;;;37.90;18.03;;;5.20;95.30;;;;;;5256850;28;20220;-48
2022/03/25 02:55:58;;;;;;;30.33;17.47;;;5.20;94.90;;;;;;5272443;28;20187;-48
2022/03/25 02:58:29;;;;;;;35.60;17.53;;;5.20;94.80;;;;;;5289150;28;20460;-48
2022/03/25 03:01:01;;;;;;;36.47;18.03;;;5.30;94.70;;;;;;5289819;28;20210;-47
2022/03/25 03:03:34;;;;;;;34.70;18.20;;;5.40;94.50;;;;;;5253454;28;20199;-48
2022/03/25 03:06:06;;;;;;;33.77;18.77;;;5.40;94.50;;;;;;5291116;28;20441;-50
2022/03/25 03:08:37;;;;;;;53.70;19.57;;;5.40;93.90;;;;;;5270941;28;20441;-47
2022/03/25 03:11:08;;;;;;;40.20;18.20;;;5.50;93.40;;;;;;5288645;28;20432;-48
2022/03/25 03:13:39;;;;;;;35.07;17.30;;;5.50;93.00;;;;;;5290119;28;20515;-49
2022/03/25 03:16:10;;;;;;;37.20;18.50;;;5.60;92.90;;;;;;5288356;28;20186;-48
2022/03/25 03:18:40;;;;;;;33.33;17.45;;;5.50;92.70;;;;;;5220744;28;1370906;-48
2022/03/25 03:21:11;;;;;;;32.90;17.27;;;5.60;92.80;;;;;;5284535;27;20262;-48
2022/03/25 03:23:42;;;;;;;38.37;18.50;;;5.60;92.30;;;;;;5288082;27;20179;-48
2022/03/25 03:26:12;;;;;;;37.50;18.93;;;5.60;91.80;;;;;;5293023;28;20432;-49
2022/03/25 03:28:44;;;;;;;31.63;19.63;;;5.60;91.30;;;;;;5267779;28;20203;-48
2022/03/25 03:31:14;;;;;;;32.83;17.87;;;5.60;91.10;;;;;;5287967;27;20171;-48
2022/03/25 03:33:46;;;;;;;35.93;19.57;;;5.60;91.00;;;;;;5288519;27;20433;-49
2022/03/25 03:36:17;;;;;;;35.37;18.30;;;5.60;91.40;;;;;;5277999;27;20214;-47
2022/03/25 03:38:47;;;;;;;37.60;17.03;;;5.50;91.20;;;;;;5273076;28;21093;-47
2022/03/25 03:41:18;;;;;;;22.97;14.90;;;5.50;91.30;;;;;;5274036;28;20287;-47
2022/03/25 03:43:48;;;;;;;24.40;14.90;;;5.40;91.50;;;;;;5292719;28;20652;-48
2022/03/25 03:46:19;;;;;;;31.77;17.60;;;5.40;92.10;;;;;;5273372;28;20184;-47
2022/03/25 03:48:50;;;;;;;37.17;18.00;;;5.30;93.00;;;;;;5292223;27;20223;-47
2022/03/25 03:51:21;;;;;;;36.13;18.17;;;5.30;93.80;;;;;;5269835;28;20187;-48
2022/03/25 03:53:51;;;;;;;32.63;18.17;;;5.30;94.30;;;;;;5275815;27;20435;-48
2022/03/25 03:56:22;;;;;;;37.73;18.43;;;5.30;94.60;;;;;;5268656;28;20205;-47
2022/03/25 03:58:53;;;;;;;37.20;17.67;;;5.30;94.30;;;;;;5283638;27;20215;-49
2022/03/25 04:01:23;;;;;;;40.63;18.90;;;5.30;93.70;;;;;;5290839;28;20191;-48
2022/03/25 04:03:54;;;;;;;36.47;16.60;;;5.30;93.20;;;;;;5279370;28;20441;-47
2022/03/25 04:06:25;;;;;;;30.63;16.97;;;5.40;92.90;;;;;;5270585;28;20515;-48
2022/03/25 04:08:56;;;;;;;30.03;16.63;;;5.40;92.60;;;;;;5290720;27;20265;-47
2022/03/25 04:11:26;;;;;;;33.27;18.33;;;5.40;92.30;;;;;;5274068;28;20829;-48
2022/03/25 04:13:57;;;;;;;29.83;16.97;;;5.40;91.80;;;;;;5269698;28;20228;-47
2022/03/25 04:16:30;;;;;;;29.87;17.10;;;5.40;91.70;;;;;;5285448;27;20595;-48
2022/03/25 04:19:01;;;;;;;36.63;17.07;;;5.40;91.60;;;;;;5278893;28;20471;-48
2022/03/25 04:21:32;;;;;;;45.70;18.60;;;5.40;91.70;;;;;;5273993;28;20720;-47
2022/03/25 04:24:02;;;;;;;26.93;16.60;;;5.40;91.80;;;;;;5288806;27;20206;-47
2022/03/25 04:26:33;;;;;;;30.80;16.23;;;5.40;91.90;;;;;;5288307;28;20248;-47
2022/03/25 04:29:03;;;;;;;38.10;18.40;;;5.40;92.10;;;;;;5286257;27;20224;-48
2022/03/25 04:31:34;;;;;;;35.47;16.20;;;5.40;92.70;;;;;;5290952;27;20192;-48
2022/03/25 04:34:04;;;;;;;42.70;17.60;;;5.30;92.30;;;;;;5289056;27;20198;-48
2022/03/25 04:36:35;;;;;;;33.50;15.93;;;5.20;92.00;;;;;;5290821;27;20722;-48
2022/03/25 04:39:05;;;;;;;32.73;16.80;;;5.30;92.10;;;;;;5285400;27;20298;-48
2022/03/25 04:41:36;;;;;;;39.47;17.23;;;5.30;92.50;;;;;;5281202;27;20192;-48
2022/03/25 04:44:07;;;;;;;36.00;17.30;;;5.30;92.80;;;;;;5286435;27;20648;-48
2022/03/25 04:46:39;;;;;;;31.87;15.63;;;5.20;92.90;;;;;;5281897;28;20175;-47
2022/03/25 04:49:10;;;;;;;30.83;15.87;;;5.20;93.20;;;;;;5290687;28;20560;-48
2022/03/25 04:51:41;;;;;;;28.63;15.37;;;5.20;93.40;;;;;;5274563;28;20947;-47
2022/03/25 04:54:11;;;;;;;32.40;17.50;;;5.20;93.80;;;;;;5269394;28;20463;-49
2022/03/25 04:56:42;;;;;;;32.37;16.50;;;5.20;94.00;;;;;;5287243;27;20620;-48
2022/03/25 04:59:12;;;;;;;28.13;15.90;;;5.20;94.20;;;;;;5289364;27;20219;-47
2022/03/25 05:01:43;;;;;;;39.23;16.93;;;5.20;94.50;;;;;;5280790;28;20188;-47
2022/03/25 05:04:13;;;;;;;44.67;17.57;;;5.30;94.70;;;;;;5277997;28;20628;-47
2022/03/25 05:06:44;;;;;;;37.20;17.77;;;5.20;94.70;;;;;;5273087;28;20172;-47
2022/03/25 05:09:17;;;;;;;31.17;17.40;;;5.30;94.70;;;;;;5284758;27;20264;-47
2022/03/25 05:11:48;;;;;;;33.00;16.83;;;5.30;94.60;;;;;;5272436;27;20188;-47
2022/03/25 05:14:19;;;;;;;32.50;16.80;;;5.40;94.60;;;;;;5275035;28;20436;-48
2022/03/25 05:16:52;;;;;;;41.27;18.20;;;5.40;94.40;;;;;;5288303;28;20257;-47
2022/03/25 05:19:23;;;;;;;39.80;17.77;;;5.50;94.40;;;;;;5283965;28;20240;-48
2022/03/25 05:21:53;;;;;;;46.77;19.20;;;5.50;94.20;;;;;;5286516;27;20850;-47
2022/03/25 05:24:27;;;;;;;40.63;19.17;;;5.60;94.20;;;;;;5279509;27;20271;-47
2022/03/25 05:26:59;;;;;;;33.97;17.30;;;5.60;93.50;;;;;;5252419;28;20176;-47
2022/03/25 05:29:29;;;;;;;36.77;18.13;;;5.70;93.10;;;;;;5270037;28;20839;-47
2022/03/25 05:32:00;;;;;;;34.13;17.27;;;5.80;92.60;;;;;;5282199;27;20436;-47
2022/03/25 05:34:31;;;;;;;40.03;18.20;;;5.90;92.00;;;;;;5264824;28;20241;-48
2022/03/25 05:37:01;;;;;;;47.67;18.30;;;6.00;91.40;;;;;;5278164;28;20206;-49
2022/03/25 05:39:32;;;;;;;33.37;16.43;;;6.20;90.40;;;;;;5276715;28;20215;-49
2022/03/25 05:42:02;;;;;;;33.20;17.23;;;6.30;89.00;;;;;;5282562;27;20182;-48
2022/03/25 05:44:33;;;;;;;32.83;18.40;;;6.50;85.90;;;;;;5283953;28;20221;-48
2022/03/25 05:47:04;;;;;;;37.73;17.97;;;6.70;82.70;;;;;;5283264;28;20259;-48
2022/03/25 05:49:34;;;;;;;31.77;18.00;;;6.90;80.30;;;;;;5273777;28;20208;-48
2022/03/25 05:52:05;;;;;;;81.53;24.80;;;7.10;77.80;;;;;;5285454;28;20276;-47
2022/03/25 05:54:36;;;;;;;48.93;20.30;;;7.30;75.40;;;;;;5280482;28;20185;-48
2022/03/25 05:57:07;;;;;;;44.63;17.93;;;7.50;73.00;;;;;;5271461;28;20994;-48
2022/03/25 05:59:38;;;;;;;35.57;18.63;;;7.90;70.00;;;;;;5264862;28;20501;-49
2022/03/25 06:02:08;;;;;;;47.60;20.10;;;8.50;65.50;;;;;;5277235;28;20439;-47
2022/03/25 06:04:39;;;;;;;36.60;17.90;;;9.10;60.80;;;;;;5287069;28;20615;-48
2022/03/25 06:07:11;;;;;;;36.50;18.63;;;9.60;57.30;;;;;;5266687;28;20181;-48
2022/03/25 06:09:41;;;;;;;35.57;18.07;;;10.30;53.70;;;;;;5281508;28;20541;-49
2022/03/25 06:12:12;;;;;;;40.47;19.50;;;10.90;50.70;;;;;;5263381;27;21011;-48
2022/03/25 06:14:42;;;;;;;39.50;18.47;;;11.70;48.40;;;;;;5259979;28;20181;-48
2022/03/25 06:17:13;;;;;;;39.93;19.00;;;12.30;46.20;;;;;;5280060;28;20200;-48
2022/03/25 06:19:43;;;;;;;52.60;20.70;;;12.90;44.20;;;;;;5279704;28;20285;-47
2022/03/25 06:22:14;;;;;;;38.67;19.80;;;13.40;42.40;;;;;;5280398;27;20177;-48
2022/03/25 06:24:45;;;;;;;39.70;20.67;;;13.80;40.70;;;;;;5270747;28;20185;-48
2022/03/25 06:27:15;;;;;;;53.50;21.73;;;14.10;39.60;;;;;;5267383;28;20226;-48
2022/03/25 06:29:46;;;;;;;47.53;23.10;;;14.40;38.80;;;;;;5260537;28;20228;-49
2022/03/25 06:32:17;;;;;;;41.60;20.70;;;14.60;38.30;;;;;;5284033;28;20181;-49
2022/03/25 06:34:47;;;;;;;36.20;20.03;;;14.90;38.10;;;;;;5267919;28;20184;-49
2022/03/25 06:37:18;;;;;;;51.53;21.17;;;15.40;37.30;;;;;;5283266;28;20225;-48
2022/03/25 06:39:49;;;;;;;42.17;20.47;;;16.10;36.30;;;;;;5281602;28;20208;-48
2022/03/25 06:42:19;;;;;;;47.73;21.70;;;16.60;35.20;;;;;;5255208;28;20430;-48
2022/03/25 06:44:50;;;;;;;41.77;19.60;;;17.10;34.30;;;;;;5283600;28;20176;-50
2022/03/25 06:47:20;;;;;;;53.30;21.20;;;17.50;33.10;;;;;;5279845;28;20617;-48
2022/03/25 06:49:51;;;;;;;52.20;21.00;;;18.10;32.50;;;;;;5284961;28;20207;-48
2022/03/25 06:52:22;;;;;;;38.13;21.43;;;18.50;31.30;;;;;;5266823;28;20217;-48
2022/03/25 06:54:53;;;;;;;52.27;21.10;;;18.80;30.80;;;;;;5282839;28;20185;-49
2022/03/25 06:57:24;;;;;;;32.43;18.80;;;19.10;30.60;;;;;;5267792;28;20504;-50
2022/03/25 06:59:55;;;;;;;38.27;20.60;;;19.40;30.00;;;;;;5266284;28;20290;-49
2022/03/25 07:02:26;;;;;;;36.90;18.80;;;19.90;29.50;;;;;;5281539;28;21012;-49
2022/03/25 07:04:57;;;;;;;41.70;20.60;;;20.10;29.20;;;;;;5259111;28;20439;-49
2022/03/25 07:07:28;;;;;;;40.27;21.60;;;20.50;28.80;;;;;;5264549;28;20204;-51
2022/03/25 07:09:59;;;;;;;41.13;21.33;;;20.90;28.40;;;;;;5286076;28;20231;-49
2022/03/25 07:12:29;;;;;;;39.47;19.53;;;21.00;27.30;;;;;;5283120;28;20968;-50
2022/03/25 07:15:02;;;;;;;40.33;21.13;;;21.00;27.70;;;;;;5230517;28;20219;-49
2022/03/25 07:17:34;;;;;;;42.70;22.23;;;21.10;27.50;;;;;;5278460;28;20192;-49
2022/03/25 07:20:07;;;;;;;49.03;23.03;;;21.10;27.30;;;;;;5245060;22;20493;-47
2022/03/25 07:22:37;;;;;;;47.17;24.00;;;21.20;27.50;;;;;;5208745;28;20804;-48
2022/03/25 07:25:08;;;;;;;59.83;24.73;;;21.60;27.30;;;;;;5230243;28;20426;-48
2022/03/25 07:27:40;;;;;;;50.63;23.47;;;21.80;27.10;;;;;;5205272;28;20182;-48
2022/03/25 07:30:12;;;;;;;49.37;23.40;;;22.00;26.90;;;;;;5245543;28;20448;-49
2022/03/25 07:32:43;;;;;;;50.47;22.47;;;22.30;26.40;;;;;;5248593;28;20443;-48
2022/03/25 07:35:14;;;;;;;46.33;20.57;;;22.50;26.40;;;;;;5244259;28;20437;-51
2022/03/25 07:37:45;;;;;;;44.93;23.33;;;22.70;26.20;;;;;;5241701;28;20195;-49
2022/03/25 07:40:17;;;;;;;58.57;24.67;;;22.80;25.80;;;;;;5237430;28;20495;-48
2022/03/25 07:42:47;;;;;;;42.13;21.57;;;22.60;25.90;;;;;;5249801;28;20209;-48
2022/03/25 07:45:18;;;;;;;59.90;22.20;;;22.60;26.10;;;;;;5227783;28;20463;-49
2022/03/25 07:47:50;;;;;;;52.33;22.50;;;22.70;26.00;;;;;;5227184;28;20185;-48
2022/03/25 07:50:22;;;;;;;57.93;24.70;;;22.60;25.90;;;;;;5240706;28;20666;-49
2022/03/25 07:52:53;;;;;;;48.97;23.63;;;22.70;26.10;;;;;;5240991;28;21764;-47
2022/03/25 07:55:24;;;;;;;53.27;23.90;;;22.90;26.20;;;;;;5223674;28;20495;-48
2022/03/25 07:57:56;;;;;;;57.67;22.90;;;22.90;25.70;;;;;;5242064;28;20190;-50
2022/03/25 08:00:27;;;;;;;37.67;21.37;;;23.20;25.90;;;;;;5239877;28;20262;-48
2022/03/25 08:02:57;;;;;;;48.90;22.60;;;23.40;25.60;;;;;;5235868;28;20437;-49
2022/03/25 08:05:29;;;;;;;46.27;23.23;;;23.50;26.00;;;;;;5241488;28;20199;-47
2022/03/25 08:08:02;;;;;;;45.47;23.40;;;23.20;25.50;;;;;;5240187;28;20186;-48
2022/03/25 08:10:35;;;;;;;50.07;23.80;;;22.70;25.80;;;;;;5245028;28;20586;-48
2022/03/25 08:13:07;;;;;;;57.47;23.47;;;22.00;26.50;;;;;;5240520;28;20448;-47
2022/03/25 08:15:38;;;;;;;49.33;23.80;;;21.40;26.90;;;;;;5226113;28;20437;-48
2022/03/25 08:18:13;;;;;;;50.73;22.47;;;20.50;27.60;;;;;;5244558;28;20535;-48
2022/03/25 08:20:45;;;;;;;51.20;23.37;;;19.50;28.60;;;;;;5226776;28;20478;-48
2022/03/25 08:29:02;;;;;;;45.03;23.43;;;18.20;30.50;;;;;;5245963;28;20460;-50
2022/03/25 08:31:34;;;;;;;43.57;22.70;;;17.40;31.40;;;;;;5244386;28;20440;-47
2022/03/25 08:34:07;;;;;;;44.63;22.37;;;17.00;32.40;;;;;;5246668;28;20190;-48
2022/03/25 08:36:38;;;;;;;50.83;23.73;;;16.80;33.00;;;;;;5243959;28;20445;-48
2022/03/25 08:39:09;;;;;;;54.97;23.10;;;16.60;33.30;;;;;;5228740;28;20475;-48
2022/03/25 08:41:40;;;;;;;49.87;22.17;;;16.60;33.60;;;;;;5245440;28;20178;-48
2022/03/25 08:44:11;;;;;;;42.67;23.27;;;16.50;33.60;;;;;;5228203;28;20618;-49
2022/03/25 08:46:41;;;;;;;37.47;21.67;;;16.10;33.90;;;;;;5231145;28;20421;-50
2022/03/25 08:49:12;;;;;;;44.70;21.80;;;15.90;34.50;;;;;;5236906;28;20555;-50
2022/03/25 08:51:43;;;;;;;47.47;23.40;;;15.80;35.00;;;;;;5236340;28;20190;-49
2022/03/25 08:54:14;;;;;;;43.50;23.60;;;15.60;35.30;;;;;;5239931;28;20436;-48
2022/03/25 08:56:44;;;;;;;47.90;21.97;;;15.40;35.60;;;;;;5243659;28;20178;-49
2022/03/25 08:59:15;;;;;;;51.93;22.77;;;15.30;36.00;;;;;;5239799;28;20464;-50
2022/03/25 09:01:46;;;;;;;46.23;24.33;;;15.20;36.20;;;;;;5243810;28;20187;-49
2022/03/25 09:04:16;;;;;;;43.37;23.80;;;15.00;36.60;;;;;;5226237;28;20175;-48
2022/03/25 09:06:47;;;;;;;42.70;24.10;;;14.90;37.20;;;;;;5221965;28;20487;-48
2022/03/25 09:09:17;;;;;;;43.30;22.03;;;14.80;37.50;;;;;;5238430;28;20616;-47
2022/03/25 09:11:48;;;;;;;43.80;22.03;;;14.80;37.80;;;;;;5243361;28;20224;-49
2022/03/25 09:14:19;;;;;;;44.43;23.33;;;15.00;37.60;;;;;;5239964;28;20235;-49
2022/03/25 09:16:49;;;;;;;56.20;23.80;;;15.00;37.70;;;;;;5236579;28;20271;-50
2022/03/25 09:19:20;;;;;;;37.83;21.70;;;15.10;37.80;;;;;;5204432;28;20275;-49
2022/03/25 09:21:53;;;;;;;45.97;23.03;;;15.10;38.00;;;;;;5222716;28;20289;-48
2022/03/25 09:24:24;;;;;;;50.23;23.70;;;15.20;38.00;;;;;;5236546;28;20194;-49
2022/03/25 09:26:54;;;;;;;61.30;27.60;;;15.20;38.00;;;;;;5238159;28;20462;-49
2022/03/25 09:29:25;;;;;;;50.10;24.27;;;15.20;38.30;;;;;;5238050;28;20224;-52
2022/03/25 09:31:56;;;;;;;51.83;24.40;;;15.30;38.50;;;;;;5236673;28;20199;-49
2022/03/25 09:37:15;;;;;;;53.03;26.47;;;15.40;38.60;;;;;;5250237;28;20236;-49
2022/03/25 09:39:46;;;;;;;49.77;22.60;;;15.50;38.50;;;;;;5228029;28;20480;-50
2022/03/25 09:42:18;;;;;;;47.40;24.30;;;15.50;38.70;;;;;;5230202;28;20205;-48
2022/03/25 09:44:49;;;;;;;56.97;23.90;;;15.50;38.50;;;;;;5243516;28;20289;-49
2022/03/25 09:47:20;;;;;;;47.27;24.30;;;15.50;38.70;;;;;;5225436;28;20961;-48
2022/03/25 09:49:52;;;;;;;42.40;23.70;;;15.60;38.50;;;;;;5244993;28;20666;-48
2022/03/25 09:52:23;;;;;;;49.83;25.03;;;15.80;38.80;;;;;;5246268;28;20806;-49
2022/03/25 09:54:54;;;;;;;42.73;22.17;;;15.80;38.90;;;;;;5243562;28;20523;-49
2022/03/25 09:57:28;;;;;;;46.53;23.83;;;15.90;39.20;;;;;;5251889;28;20540;-48
2022/03/25 09:59:59;;;;;;;51.93;26.03;;;15.90;39.00;;;;;;5246933;28;20228;-48
2022/03/25 10:02:30;;;;;;;48.93;23.37;;;16.00;39.00;;;;;;5252458;28;20443;-50
2022/03/25 10:05:14;;;;;;;54.67;25.50;;;15.80;39.30;;;;;;5227802;28;20787;-47
2022/03/25 10:07:54;;;;;;;46.20;24.77;;;15.70;39.70;;;;;;5245311;28;20178;-48
2022/03/25 10:10:27;;;;;;;53.13;23.50;;;15.70;40.00;;;;;;5252688;28;20568;-49
2022/03/25 10:13:05;;;;;;;47.60;25.20;;;15.80;40.00;;;;;;5245768;28;20520;-48
2022/03/25 10:15:38;;;;;;;41.70;24.10;;;16.00;39.90;;;;;;5229093;28;20444;-50
2022/03/25 10:18:09;;;;;;;57.20;27.73;;;16.20;39.80;;;;;;5237040;28;20456;-49
2022/03/25 10:20:42;;;;;;;45.47;26.00;;;16.20;39.70;;;;;;5240457;28;20787;-49
2022/03/25 10:23:19;;;;;;;40.13;23.30;;;16.30;39.60;;;;;;5242985;28;20270;-48
2022/03/25 10:26:00;;;;;;;52.33;25.10;;;16.40;39.40;;;;;;5239595;28;20431;-48
2022/03/25 10:28:32;;;;;;;59.43;29.23;;;16.40;39.00;;;;;;5243750;28;20447;-48
2022/03/25 10:31:11;;;;;;;50.77;26.90;;;16.20;39.10;;;;;;5229589;28;20452;-50
2022/03/25 10:33:43;;;;;;;41.10;23.40;;;16.30;39.60;;;;;;5236374;28;20478;-48
2022/03/25 10:36:20;;;;;;;54.07;28.70;;;16.30;39.40;;;;;;5226041;28;20429;-48
2022/03/25 10:38:54;;;;;;;55.30;27.00;;;16.50;39.20;;;;;;5231093;28;20963;-48
2022/03/25 10:41:36;;;;;;;55.37;26.23;;;16.40;39.20;;;;;;5238556;28;20440;-48
2022/03/25 10:44:09;;;;;;;47.03;24.57;;;16.20;39.40;;;;;;5240750;28;20953;-48
2022/03/25 10:46:42;;;;;;;41.00;25.20;;;16.40;39.80;;;;;;5224260;28;20494;-48
2022/03/25 10:49:16;;;;;;;44.43;25.40;;;16.70;39.30;;;;;;5236561;28;20471;-49
2022/03/25 10:51:56;;;;;;;49.87;24.67;;;16.70;38.80;;;;;;5229637;28;21035;-50
2022/03/25 10:54:28;;;;;;;49.50;26.80;;;16.90;38.90;;;;;;5238806;28;20464;-50
2022/03/25 10:57:00;;;;;;;46.60;25.70;;;17.00;38.50;;;;;;5242229;28;20451;-49
2022/03/25 10:59:35;;;;;;;45.00;24.07;;;17.00;38.70;;;;;;5225092;28;20893;-48
2022/03/25 11:02:08;;;;;;;53.93;25.30;;;17.00;38.70;;;;;;5239627;28;20509;-49
2022/03/25 11:04:40;;;;;;;52.37;24.77;;;17.00;38.50;;;;;;5224702;28;20919;-49
2022/03/25 11:07:11;;;;;;;56.13;26.30;;;17.10;38.50;;;;;;5224990;28;20551;-49
2022/03/25 11:09:42;;;;;;;42.60;24.07;;;16.90;39.30;;;;;;5244786;28;20553;-49
2022/03/25 11:12:14;;;;;;;48.30;24.83;;;16.90;39.20;;;;;;5246248;28;20186;-49
2022/03/25 11:14:44;;;;;;;51.93;24.67;;;17.00;39.10;;;;;;5240755;28;20449;-49
2022/03/25 11:17:18;;;;;;;40.33;23.60;;;17.00;38.80;;;;;;5240769;28;20443;-49
2022/03/25 11:19:49;;;;;;;46.10;23.73;;;16.80;38.90;;;;;;5248665;28;20221;-51
2022/03/25 11:22:23;;;;;;;44.00;20.50;;;16.90;39.40;;;;;;5239196;28;20441;-49
2022/03/25 11:24:59;;;;;;;34.77;17.80;;;16.80;38.90;;;;;;5242858;28;20805;-48
2022/03/25 11:27:37;;;;;;;40.63;17.13;;;16.80;38.60;;;;;;5247425;28;20439;-50
2022/03/25 11:30:16;;;;;;;27.77;15.33;;;16.90;38.50;;;;;;5239978;28;20467;-49
2022/03/25 11:33:03;;;;;;;44.53;16.37;;;16.90;38.40;;;;;;5244986;28;20440;-51
2022/03/25 11:35:42;;;;;;;36.43;15.00;;;16.90;38.50;;;;;;5245242;28;20482;-49
2022/03/25 11:38:15;;;;;;;37.10;17.53;;;16.90;38.40;;;;;;5242100;28;20452;-50
2022/03/25 11:40:48;;;;;;;43.87;17.20;;;17.00;38.30;;;;;;5254935;28;20459;-51
2022/03/25 11:43:21;;;;;;;33.30;15.07;;;16.90;38.10;;;;;;5245404;28;20419;-50
2022/03/25 11:46:05;;;;;;;26.43;11.23;;;16.90;38.40;;;;;;5220840;28;20573;-48
2022/03/25 11:48:38;;;;;;;28.27;12.67;;;17.00;38.50;;;;;;5242183;28;20964;-48
2022/03/25 11:51:30;;;;;;;23.23;11.87;;;17.00;38.50;;;;;;5229327;28;20679;-50
2022/03/25 11:54:03;;;;;;;26.83;10.93;;;16.90;38.20;;;;;;5238574;28;20432;-50
2022/03/25 11:56:48;;;;;;;24.70;12.40;;;16.90;38.30;;;;;;5238852;28;20432;-48
2022/03/25 11:59:19;;;;;;;26.70;12.27;;;17.10;38.40;;;;;;5239005;28;20460;-50
2022/03/25 12:01:49;;;;;;;24.97;13.03;;;17.10;38.40;;;;;;5230439;28;20729;-49
2022/03/25 12:04:38;;;;;;;38.33;13.87;;;17.00;38.50;;;;;;5228901;28;20178;-51
2022/03/25 12:07:08;;;;;;;20.77;13.20;;;17.10;38.70;;;;;;5229767;28;20175;-52
2022/03/25 12:09:40;;;;;;;29.33;13.87;;;17.20;38.60;;;;;;5240976;28;20969;-50
2022/03/25 12:12:11;;;;;;;26.27;14.10;;;17.20;38.50;;;;;;5208006;28;20186;-49
2022/03/25 12:15:04;;;;;;;32.37;14.90;;;17.20;38.70;;;;;;5243933;28;20444;-52
2022/03/25 12:17:34;;;;;;;39.40;14.00;;;17.30;38.30;;;;;;5227650;28;20443;-51
2022/03/25 12:20:05;;;;;;;24.43;13.53;;;17.40;38.90;;;;;;5226129;28;20511;-50
2022/03/25 12:22:37;;;;;;;41.47;13.60;;;17.50;38.20;;;;;;5236810;28;20183;-50
2022/03/25 12:25:11;;;;;;;30.23;12.97;;;17.60;38.10;;;;;;5243242;28;20442;-51
2022/03/25 12:27:42;;;;;;;22.63;15.37;;;17.80;38.20;;;;;;5248535;28;20452;-51
2022/03/25 12:30:14;;;;;;;44.47;16.50;;;17.90;37.50;;;;;;5234146;28;20448;-50
2022/03/25 12:32:46;;;;;;;25.70;14.67;;;17.90;37.50;;;;;;5241902;28;20199;-51
2022/03/25 12:35:18;;;;;;;29.10;15.77;;;17.70;37.50;;;;;;5240936;28;20512;-50
2022/03/25 12:37:53;;;;;;;25.60;15.17;;;17.70;37.50;;;;;;5229256;28;20440;-52
2022/03/25 12:40:27;;;;;;;24.50;14.33;;;17.60;37.90;;;;;;5244994;28;20461;-51
2022/03/25 12:43:08;;;;;;;35.60;14.83;;;17.70;38.00;;;;;;5240945;28;20425;-49
2022/03/25 12:45:51;;;;;;;26.20;14.57;;;17.70;37.90;;;;;;5230329;28;20437;-50
2022/03/25 12:48:23;;;;;;;22.00;12.40;;;17.80;37.80;;;;;;5227209;28;20471;-51
2022/03/25 12:51:03;;;;;;;26.10;13.23;;;17.80;37.70;;;;;;5241191;28;20471;-50
2022/03/25 12:53:33;;;;;;;26.67;14.77;;;17.80;37.50;;;;;;5240232;28;20527;-50
2022/03/25 12:56:05;;;;;;;22.57;12.97;;;17.70;37.60;;;;;;5238148;28;20416;-50
2022/03/25 12:58:40;;;;;;;28.23;15.30;;;17.60;37.90;;;;;;5242777;28;20207;-52
2022/03/25 13:01:16;;;;;;;29.23;14.87;;;17.40;38.20;;;;;;5247113;28;20485;-51
2022/03/25 13:03:47;;;;;;;37.60;15.83;;;17.40;38.50;;;;;;5240815;28;20456;-49